createdAt,value
2022-10-11T00:00:57.641Z,10.52
2022-10-11T00:03:34.699Z,10.51
2022-10-11T00:06:03.829Z,10.49
2022-10-11T00:08:32.884Z,10.48
2022-10-11T00:11:05.345Z,10.47
2022-10-11T00:13:33.619Z,10.50
2022-10-11T00:16:07.460Z,10.50
2022-10-11T00:18:36.532Z,10.45
2022-10-11T00:21:08.738Z,10.40
2022-10-11T00:23:36.448Z,10.37
2022-10-11T00:26:07.956Z,10.34
2022-10-11T00:28:36.583Z,10.30
2022-10-11T00:31:11.348Z,10.29
2022-10-11T00:33:39.933Z,10.28
2022-10-11T00:36:09.384Z,10.29
2022-10-11T00:38:37.303Z,10.31
2022-10-11T00:41:05.790Z,10.33
2022-10-11T00:43:33.574Z,10.38
2022-10-11T00:46:19.127Z,10.40
2022-10-11T00:48:53.753Z,10.44
2022-10-11T00:51:46.863Z,10.49
2022-10-11T00:54:18.733Z,10.52
2022-10-11T00:56:52.009Z,10.50
2022-10-11T00:59:27.619Z,10.47
2022-10-11T01:01:55.655Z,10.49
2022-10-11T01:04:23.614Z,10.51
2022-10-11T01:06:53.180Z,10.52
2022-10-11T01:09:22.162Z,10.54
2022-10-11T01:11:52.335Z,10.56
2022-10-11T01:14:59.589Z,10.61
2022-10-11T01:17:56.533Z,10.63
2022-10-11T01:20:36.538Z,10.66
2022-10-11T01:23:38.890Z,10.70
2022-10-11T01:26:34.256Z,10.77
2022-10-11T01:29:44.855Z,10.82
2022-10-11T01:32:46.533Z,10.90
2022-10-11T01:35:45.672Z,10.92
2022-10-11T01:38:22.002Z,10.97
2022-10-11T01:40:59.667Z,11.02
2022-10-11T01:43:28.847Z,11.06
2022-10-11T01:45:58.873Z,11.08
2022-10-11T01:48:26.521Z,11.05
2022-10-11T01:50:58.634Z,11.10
2022-10-11T01:53:54.067Z,11.14
2022-10-11T01:57:04.463Z,11.17
2022-10-11T01:59:47.206Z,11.20
2022-10-11T02:02:43.694Z,11.22
2022-10-11T02:05:33.375Z,11.25
2022-10-11T02:08:16.497Z,11.28
2022-10-11T02:10:54.174Z,11.28
2022-10-11T02:13:37.954Z,11.23
2022-10-11T02:16:12.989Z,11.29
2022-10-11T02:18:51.110Z,11.30
2022-10-11T02:21:23.411Z,11.34
2022-10-11T02:24:07.232Z,11.36
2022-10-11T02:26:36.564Z,11.38
2022-10-11T02:29:07.710Z,11.42
2022-10-11T02:31:36.419Z,11.43
2022-10-11T02:34:41.252Z,11.40
2022-10-11T02:37:25.506Z,11.41
2022-10-11T02:40:15.526Z,11.42
2022-10-11T02:42:58.450Z,11.40
2022-10-11T02:45:35.086Z,11.41
2022-10-11T02:48:04.601Z,11.42
2022-10-11T02:50:32.740Z,11.42
2022-10-11T02:53:00.418Z,11.43
2022-10-11T02:55:28.158Z,11.43
2022-10-11T02:57:56.299Z,11.43
2022-10-11T03:00:24.182Z,11.39
2022-10-11T03:02:51.887Z,11.35
2022-10-11T03:05:19.914Z,11.30
2022-10-11T03:07:47.579Z,11.26
2022-10-11T03:10:15.435Z,11.24
2022-10-11T03:12:43.068Z,11.19
2022-10-11T03:15:11.313Z,11.16
2022-10-11T03:17:39.326Z,11.13
2022-10-11T03:20:07.930Z,11.10
2022-10-11T03:22:36.497Z,11.05
2022-10-11T03:25:05.008Z,10.99
2022-10-11T03:27:33.929Z,10.89
2022-10-11T03:30:02.534Z,10.81
2022-10-11T03:32:30.601Z,10.77
2022-10-11T03:34:58.238Z,10.72
2022-10-11T03:37:26.271Z,10.68
2022-10-11T03:39:54.065Z,10.63
2022-10-11T03:42:21.733Z,10.59
2022-10-11T03:44:51.790Z,10.55
2022-10-11T03:47:19.954Z,10.44
2022-10-11T03:49:47.643Z,10.39
2022-10-11T03:52:15.435Z,10.36
2022-10-11T03:54:43.122Z,10.33
2022-10-11T03:57:10.861Z,10.32
2022-10-11T03:59:38.558Z,10.25
2022-10-11T04:02:06.977Z,10.13
2022-10-11T04:04:34.941Z,10.10
2022-10-11T04:07:02.862Z,10.07
2022-10-11T04:09:30.763Z,10.02
2022-10-11T04:11:58.490Z,9.94
2022-10-11T04:14:27.132Z,9.96
2022-10-11T04:16:57.356Z,9.95
2022-10-11T04:19:28.037Z,9.92
2022-10-11T04:21:55.745Z,9.87
2022-10-11T04:24:23.445Z,9.84
2022-10-11T04:26:51.125Z,9.82
2022-10-11T04:29:18.774Z,9.78
2022-10-11T04:31:46.869Z,9.76
2022-10-11T04:34:14.676Z,9.69
2022-10-11T04:36:44.390Z,9.67
2022-10-11T04:39:15.433Z,9.64
2022-10-11T04:41:43.158Z,9.61
2022-10-11T04:44:10.792Z,9.59
2022-10-11T04:46:38.488Z,9.57
2022-10-11T04:49:06.147Z,9.61
2022-10-11T04:51:33.792Z,9.67
2022-10-11T04:54:01.554Z,9.72
2022-10-11T04:56:30.546Z,9.76
2022-10-11T04:58:58.282Z,9.82
2022-10-11T05:01:26.102Z,9.86
2022-10-11T05:03:53.767Z,9.89
2022-10-11T05:06:21.484Z,9.93
2022-10-11T05:08:49.244Z,9.96
2022-10-11T05:11:17.592Z,9.98
2022-10-11T05:13:47.069Z,9.99
2022-10-11T05:16:15.849Z,10.01
2022-10-11T05:18:44.410Z,9.97
2022-10-11T05:21:22.517Z,9.94
2022-10-11T05:23:52.857Z,9.93
2022-10-11T05:26:20.861Z,9.86
2022-10-11T05:28:49.030Z,9.78
2022-10-11T05:31:16.863Z,9.71
2022-10-11T05:33:45.225Z,9.64
2022-10-11T05:36:14.116Z,9.58
2022-10-11T05:38:41.875Z,9.56
2022-10-11T05:41:13.431Z,9.54
2022-10-11T05:43:41.231Z,9.50
2022-10-11T05:46:09.103Z,9.45
2022-10-11T05:48:37.011Z,9.44
2022-10-11T05:51:09.898Z,9.41
2022-10-11T05:53:38.856Z,9.37
2022-10-11T05:56:22.130Z,9.37
2022-10-11T05:58:51.154Z,9.34
2022-10-11T06:01:25.350Z,9.33
2022-10-11T06:03:53.633Z,9.31
2022-10-11T06:06:21.720Z,9.28
2022-10-11T06:08:50.007Z,9.31
2022-10-11T06:11:23.475Z,9.34
2022-10-11T06:13:55.034Z,9.37
2022-10-11T06:16:22.791Z,9.39
2022-10-11T06:18:57.880Z,9.43
2022-10-11T06:21:26.132Z,9.46
2022-10-11T06:23:59.916Z,9.49
2022-10-11T06:26:30.028Z,9.52
2022-10-11T06:28:58.988Z,9.56
2022-10-11T06:31:27.042Z,9.63
2022-10-11T06:33:55.103Z,9.68
2022-10-11T06:36:22.909Z,9.71
2022-10-11T06:38:54.979Z,9.73
2022-10-11T06:41:26.468Z,9.76
2022-10-11T06:43:54.850Z,9.82
2022-10-11T06:46:25.513Z,9.87
2022-10-11T06:48:56.296Z,9.89
2022-10-11T06:51:25.754Z,9.96
2022-10-11T06:53:57.800Z,10.02
2022-10-11T06:56:27.804Z,10.07
2022-10-11T06:58:58.173Z,10.11
2022-10-11T07:01:27.562Z,10.18
2022-10-11T07:03:58.219Z,10.25
2022-10-11T07:06:28.500Z,10.34
2022-10-11T07:08:57.453Z,10.38
2022-10-11T07:11:27.759Z,10.44
2022-10-11T07:14:04.356Z,10.56
2022-10-11T07:16:32.032Z,10.69
2022-10-11T07:19:02.726Z,10.82
2022-10-11T07:21:33.325Z,10.97
2022-10-11T07:24:02.263Z,11.07
2022-10-11T07:26:36.860Z,11.05
2022-10-11T07:29:11.582Z,11.00
2022-10-11T07:31:42.071Z,10.99
2022-10-11T07:34:10.730Z,11.06
2022-10-11T07:36:38.760Z,10.81
2022-10-11T07:39:08.738Z,10.93
2022-10-11T07:41:43.078Z,11.01
2022-10-11T07:44:14.510Z,11.15
2022-10-11T07:46:42.519Z,11.24
2022-10-11T07:49:10.182Z,11.25
2022-10-11T07:51:37.814Z,11.43
2022-10-11T07:54:07.419Z,11.64
2022-10-11T07:56:37.429Z,11.64
2022-10-11T07:59:05.820Z,11.67
2022-10-11T08:01:33.812Z,11.71
2022-10-11T08:04:01.726Z,11.51
2022-10-11T08:06:32.651Z,11.41
2022-10-11T08:09:02.126Z,11.31
2022-10-11T08:11:36.633Z,11.51
2022-10-11T08:14:08.874Z,11.68
2022-10-11T08:16:39.038Z,11.86
2022-10-11T08:19:07.304Z,11.82
2022-10-11T08:21:35.048Z,11.79
2022-10-11T08:24:05.356Z,11.89
2022-10-11T08:26:34.464Z,11.88
2022-10-11T08:29:03.373Z,11.96
2022-10-11T08:31:32.851Z,12.00
2022-10-11T08:34:00.898Z,11.96
2022-10-11T08:36:28.778Z,11.95
2022-10-11T08:38:56.618Z,12.02
2022-10-11T08:42:04.640Z,12.04
2022-10-11T08:47:36.417Z,11.86
2022-10-11T08:50:07.891Z,11.76
2022-10-11T08:52:52.423Z,11.82
2022-10-11T08:55:39.949Z,11.95
2022-10-11T08:58:13.774Z,12.13
2022-10-11T09:00:42.632Z,12.07
2022-10-11T09:03:40.327Z,12.37
2022-10-11T09:06:23.628Z,12.33
2022-10-11T09:09:32.990Z,12.07
2022-10-11T09:12:34.281Z,12.29
2022-10-11T09:15:49.560Z,12.40
2022-10-11T09:18:30.129Z,12.39
2022-10-11T09:21:31.030Z,12.36
2022-10-11T09:24:25.937Z,12.50
2022-10-11T09:27:05.184Z,12.85
2022-10-11T09:30:01.733Z,13.06
2022-10-11T09:32:37.260Z,13.11
2022-10-11T09:35:17.223Z,13.21
2022-10-11T09:38:11.308Z,13.05
2022-10-11T09:41:01.971Z,13.12
2022-10-11T09:43:30.382Z,13.30
2022-10-11T09:45:58.079Z,13.55
2022-10-11T09:48:40.191Z,13.73
2022-10-11T09:51:20.564Z,13.79
2022-10-11T09:54:10.911Z,13.70
2022-10-11T09:56:45.046Z,13.51
2022-10-11T09:59:32.574Z,13.37
2022-10-11T10:02:17.763Z,13.40
2022-10-11T10:05:06.474Z,13.52
2022-10-11T10:07:39.314Z,13.55
2022-10-11T10:10:40.367Z,13.63
2022-10-11T10:13:24.380Z,13.90
2022-10-11T10:15:56.435Z,13.76
2022-10-11T10:19:04.293Z,13.92
2022-10-11T10:21:38.482Z,14.01
2022-10-11T10:24:18.385Z,14.16
2022-10-11T10:27:23.461Z,14.18
2022-10-11T10:30:09.725Z,14.39
2022-10-11T10:33:11.607Z,14.48
2022-10-11T10:35:46.907Z,14.58
2022-10-11T10:38:29.285Z,14.63
2022-10-11T10:41:11.731Z,14.64
2022-10-11T10:43:42.946Z,14.58
2022-10-11T10:46:50.713Z,14.65
2022-10-11T10:49:55.332Z,14.63
2022-10-11T10:53:08.904Z,14.79
2022-10-11T10:55:53.841Z,14.98
2022-10-11T10:58:39.541Z,15.10
2022-10-11T11:01:33.878Z,15.34
2022-10-11T11:04:22.197Z,14.83
2022-10-11T11:07:28.277Z,14.62
2022-10-11T11:10:16.619Z,14.68
2022-10-11T11:12:59.074Z,15.05
2022-10-11T11:16:11.478Z,15.56
2022-10-11T11:18:57.823Z,15.25
2022-10-11T11:21:50.165Z,15.29
2022-10-11T11:24:46.953Z,15.47
2022-10-11T11:27:49.945Z,15.49
2022-10-11T11:30:36.528Z,15.37
2022-10-11T11:33:30.918Z,15.60
2022-10-11T11:36:47.694Z,15.21
2022-10-11T11:39:32.683Z,15.35
2022-10-11T11:42:20.837Z,15.08
2022-10-11T11:44:51.442Z,15.36
2022-10-11T11:47:41.091Z,15.53
2022-10-11T11:50:23.013Z,15.16
2022-10-11T11:53:07.582Z,14.79
2022-10-11T11:56:01.585Z,15.37
2022-10-11T11:58:49.809Z,15.47
2022-10-11T12:01:46.756Z,15.61
2022-10-11T12:04:34.808Z,15.95
2022-10-11T12:07:16.311Z,15.96
2022-10-11T12:09:54.489Z,16.10
2022-10-11T12:12:37.897Z,16.23
2022-10-11T12:15:08.965Z,16.18
2022-10-11T12:18:04.169Z,16.36
2022-10-11T12:20:40.876Z,16.34
2022-10-11T12:23:30.525Z,16.61
2022-10-11T12:26:29.055Z,17.06
2022-10-11T12:29:03.825Z,16.98
2022-10-11T12:31:35.630Z,16.61
2022-10-11T12:34:26.591Z,15.98
2022-10-11T12:36:54.361Z,15.92
2022-10-11T12:39:22.658Z,16.14
2022-10-11T12:42:07.711Z,15.96
2022-10-11T12:44:35.457Z,15.62
2022-10-11T12:47:24.894Z,15.56
2022-10-11T12:50:11.909Z,15.67
2022-10-11T12:53:03.508Z,15.69
2022-10-11T12:56:15.147Z,15.70
2022-10-11T12:58:48.176Z,15.99
2022-10-11T13:01:23.464Z,16.35
2022-10-11T13:04:03.086Z,16.14
2022-10-11T13:06:44.750Z,15.98
2022-10-11T13:09:34.974Z,16.23
2022-10-11T13:12:19.351Z,16.47
2022-10-11T13:15:00.928Z,16.76
2022-10-11T13:17:38.600Z,16.86
2022-10-11T13:20:17.366Z,16.50
2022-10-11T13:22:55.598Z,16.27
2022-10-11T13:25:27.957Z,16.68
2022-10-11T13:27:59.465Z,16.84
2022-10-11T13:30:35.832Z,16.90
2022-10-11T13:33:10.984Z,16.69
2022-10-11T13:35:39.049Z,16.38
2022-10-11T13:38:29.054Z,16.42
2022-10-11T13:40:59.498Z,16.41
2022-10-11T13:43:29.960Z,16.31
2022-10-11T13:46:01.367Z,16.34
2022-10-11T13:48:31.907Z,16.39
2022-10-11T13:51:26.645Z,16.03
2022-10-11T13:54:05.924Z,15.98
2022-10-11T13:56:51.114Z,16.00
2022-10-11T13:59:23.676Z,15.99
2022-10-11T14:02:01.082Z,16.06
2022-10-11T14:04:39.909Z,15.91
2022-10-11T14:07:27.479Z,15.89
2022-10-11T14:09:55.989Z,15.74
2022-10-11T14:12:44.287Z,15.73
2022-10-11T14:15:37.131Z,15.64
2022-10-11T14:18:37.859Z,15.49
2022-10-11T14:21:45.115Z,15.31
2022-10-11T14:24:17.840Z,15.14
2022-10-11T14:26:49.441Z,15.08
2022-10-11T14:29:32.336Z,14.92
2022-10-11T14:32:15.464Z,14.93
2022-10-11T14:34:46.574Z,14.88
2022-10-11T14:37:17.593Z,14.74
2022-10-11T14:39:47.725Z,14.70
2022-10-11T14:42:15.632Z,14.77
2022-10-11T14:44:43.663Z,14.88
2022-10-11T14:47:18.174Z,14.81
2022-10-11T14:49:45.924Z,14.56
2022-10-11T14:52:14.017Z,14.57
2022-10-11T14:54:42.062Z,14.55
2022-10-11T14:57:12.035Z,14.38
2022-10-11T14:59:39.854Z,14.43
2022-10-11T15:02:11.146Z,14.31
2022-10-11T15:04:39.030Z,14.36
2022-10-11T15:07:06.966Z,14.34
2022-10-11T15:09:34.682Z,14.31
2022-10-11T15:12:02.371Z,14.26
2022-10-11T15:14:30.102Z,14.24
2022-10-11T15:16:58.023Z,14.16
2022-10-11T15:19:25.822Z,14.11
2022-10-11T15:21:53.611Z,14.06
2022-10-11T15:24:21.462Z,13.98
2022-10-11T15:26:49.326Z,13.92
2022-10-11T15:29:17.915Z,13.87
2022-10-11T15:31:46.176Z,13.81
2022-10-11T15:34:14.306Z,13.74
2022-10-11T15:36:42.543Z,13.64
2022-10-11T15:39:32.532Z,13.53
2022-10-11T15:42:00.358Z,13.43
2022-10-11T15:44:28.132Z,13.36
2022-10-11T15:46:55.875Z,13.27
2022-10-11T15:49:23.688Z,13.20
2022-10-11T15:51:51.490Z,13.12
2022-10-11T15:54:19.231Z,13.06
2022-10-11T15:56:47.347Z,12.98
2022-10-11T15:59:15.026Z,12.87
2022-10-11T16:01:42.914Z,12.81
2022-10-11T16:04:10.657Z,12.73
2022-10-11T16:06:38.472Z,12.63
2022-10-11T16:09:06.631Z,12.52
2022-10-11T16:11:34.354Z,12.47
2022-10-11T16:14:02.429Z,12.41
2022-10-11T16:16:30.207Z,12.36
2022-10-11T16:18:57.837Z,12.28
2022-10-11T16:21:25.550Z,12.21
2022-10-11T16:23:53.286Z,12.16
2022-10-11T16:26:20.916Z,12.10
2022-10-11T16:28:48.751Z,12.00
2022-10-11T16:31:21.399Z,11.96
2022-10-11T16:33:50.209Z,11.89
2022-10-11T16:36:40.665Z,11.84
2022-10-11T16:39:17.865Z,11.77
2022-10-11T16:41:46.313Z,11.71
2022-10-11T16:44:18.022Z,11.63
2022-10-11T16:46:48.432Z,11.57
2022-10-11T16:49:23.520Z,11.52
2022-10-11T16:51:54.332Z,11.47
2022-10-11T16:54:22.674Z,11.40
2022-10-11T16:56:50.368Z,11.31
2022-10-11T16:59:18.386Z,11.31
2022-10-11T17:01:46.334Z,11.29
2022-10-11T17:04:14.527Z,11.26
2022-10-11T17:06:43.929Z,11.20
2022-10-11T17:09:12.579Z,11.12
2022-10-11T17:11:40.707Z,11.07
2022-10-11T17:14:10.314Z,11.04
2022-10-11T17:16:38.060Z,10.97
2022-10-11T17:19:13.556Z,10.91
2022-10-11T17:21:42.486Z,10.89
2022-10-11T17:24:10.185Z,10.85
2022-10-11T17:26:38.113Z,10.81
2022-10-11T17:29:05.869Z,10.78
2022-10-11T17:31:33.629Z,10.76
2022-10-11T17:34:01.423Z,10.74
2022-10-11T17:36:35.894Z,10.66
2022-10-11T17:39:11.875Z,10.64
2022-10-11T17:41:39.657Z,10.55
2022-10-11T17:44:07.654Z,10.56
2022-10-11T17:46:35.807Z,10.50
2022-10-11T17:49:06.388Z,10.46
2022-10-11T17:51:37.035Z,10.41
2022-10-11T17:54:06.145Z,10.39
2022-10-11T17:56:37.854Z,10.41
2022-10-11T17:59:06.694Z,10.44
2022-10-11T18:01:34.866Z,10.44
2022-10-11T18:04:06.030Z,10.41
2022-10-11T18:06:39.871Z,10.37
2022-10-11T18:09:07.918Z,10.33
2022-10-11T18:11:35.613Z,10.32
2022-10-11T18:14:05.158Z,10.29
2022-10-11T18:16:34.220Z,10.19
2022-10-11T18:19:05.375Z,10.12
2022-10-11T18:21:34.933Z,10.09
2022-10-11T18:24:11.522Z,10.06
2022-10-11T18:26:39.475Z,10.00
2022-10-11T18:29:07.282Z,9.96
2022-10-11T18:31:35.428Z,9.87
2022-10-11T18:34:04.658Z,9.90
2022-10-11T18:36:33.150Z,9.89
2022-10-11T18:39:04.950Z,9.84
2022-10-11T18:41:33.906Z,9.85
2022-10-11T18:44:08.587Z,9.85
2022-10-11T18:46:36.425Z,9.86
2022-10-11T18:49:04.477Z,9.83
2022-10-11T18:51:39.032Z,9.76
2022-10-11T18:54:10.904Z,9.63
2022-10-11T18:56:39.846Z,9.62
2022-10-11T18:59:07.818Z,9.58
2022-10-11T19:01:44.349Z,9.58
2022-10-11T19:04:15.870Z,9.57
2022-10-11T19:06:48.016Z,9.56
2022-10-11T19:09:22.412Z,9.56
2022-10-11T19:11:53.225Z,9.50
2022-10-11T19:14:25.771Z,9.47
2022-10-11T19:16:54.951Z,9.46
2022-10-11T19:19:27.628Z,9.50
2022-10-11T19:21:55.500Z,9.55
2022-10-11T19:24:27.432Z,9.49
2022-10-11T19:26:59.878Z,9.47
2022-10-11T19:29:31.845Z,9.42
2022-10-11T19:32:02.901Z,9.37
2022-10-11T19:34:32.593Z,9.46
2022-10-11T19:37:01.193Z,9.43
2022-10-11T19:39:29.517Z,9.33
2022-10-11T19:41:57.318Z,9.27
2022-10-11T19:44:24.988Z,9.22
2022-10-11T19:46:53.234Z,9.15
2022-10-11T19:49:25.133Z,9.15
2022-10-11T19:51:55.091Z,9.10
2022-10-11T19:54:23.557Z,9.10
2022-10-11T19:56:51.375Z,9.08
2022-10-11T19:59:19.608Z,9.06
2022-10-11T20:01:52.401Z,9.10
2022-10-11T20:04:50.508Z,9.05
2022-10-11T20:07:10.522Z,9.01
2022-10-11T20:09:38.302Z,8.98
2022-10-11T20:12:06.390Z,8.93
2022-10-11T20:14:34.045Z,8.91
2022-10-11T20:17:01.756Z,8.87
2022-10-11T20:19:31.212Z,8.83
2022-10-11T20:22:01.288Z,8.81
2022-10-11T20:24:33.433Z,8.80
2022-10-11T20:27:06.139Z,8.73
2022-10-11T20:29:34.260Z,8.69
2022-10-11T20:32:01.988Z,8.65
2022-10-11T20:34:30.527Z,8.62
2022-10-11T20:36:58.848Z,8.57
2022-10-11T20:39:26.895Z,8.48
2022-10-11T20:41:54.821Z,8.47
2022-10-11T20:44:22.710Z,8.36
2022-10-11T20:46:50.553Z,8.22
2022-10-11T20:49:19.957Z,8.25
2022-10-11T20:51:48.557Z,8.26
2022-10-11T20:54:16.368Z,8.26
2022-10-11T20:56:44.137Z,8.25
2022-10-11T20:59:11.876Z,8.25
2022-10-11T21:01:41.508Z,8.23
2022-10-11T21:04:18.647Z,8.21
2022-10-11T21:06:48.367Z,8.19
2022-10-11T21:09:17.244Z,8.17
2022-10-11T21:11:45.237Z,8.19
2022-10-11T21:14:13.016Z,8.17
2022-10-11T21:16:40.776Z,8.16
2022-10-11T21:19:14.571Z,8.12
2022-10-11T21:21:43.411Z,8.09
2022-10-11T21:24:11.305Z,8.05
2022-10-11T21:26:39.244Z,8.07
2022-10-11T21:29:08.381Z,8.07
2022-10-11T21:31:36.268Z,8.14
2022-10-11T21:34:05.267Z,8.17
2022-10-11T21:36:33.643Z,8.09
2022-10-11T21:39:01.384Z,8.03
2022-10-11T21:41:30.073Z,7.98
2022-10-11T21:43:58.617Z,7.97
2022-10-11T21:49:19.879Z,7.87
2022-10-11T21:51:47.583Z,7.80
2022-10-11T21:54:15.953Z,7.84
2022-10-11T21:56:43.607Z,7.81
2022-10-11T21:59:12.584Z,7.78
2022-10-11T22:01:41.859Z,7.76
2022-10-11T22:04:11.201Z,7.82
2022-10-11T22:06:39.841Z,7.80
2022-10-11T22:09:08.623Z,7.75
2022-10-11T22:11:37.172Z,7.70
2022-10-11T22:14:05.886Z,7.67
2022-10-11T22:16:35.296Z,7.67
2022-10-11T22:19:04.116Z,7.72
2022-10-11T22:21:31.981Z,7.71
2022-10-11T22:24:00.002Z,7.67
2022-10-11T22:26:30.850Z,7.63
2022-10-11T22:29:00.240Z,7.59
2022-10-11T22:31:29.594Z,7.59
2022-10-11T22:34:00.394Z,7.77
2022-10-11T22:36:33.823Z,7.76
2022-10-11T22:39:07.635Z,7.66
2022-10-11T22:41:36.103Z,7.59
2022-10-11T22:44:04.803Z,7.51
2022-10-11T22:46:32.578Z,7.48
2022-10-11T22:49:00.314Z,7.46
2022-10-11T22:51:28.410Z,7.43
2022-10-11T22:53:56.134Z,7.40
2022-10-11T22:56:23.885Z,7.35
2022-10-11T22:58:51.566Z,7.32
2022-10-11T23:01:19.279Z,7.30
2022-10-11T23:03:50.779Z,7.30
2022-10-11T23:06:18.931Z,7.24
2022-10-11T23:08:46.629Z,7.23
2022-10-11T23:11:14.472Z,7.32
2022-10-11T23:13:42.261Z,7.22
2022-10-11T23:16:12.597Z,7.16
2022-10-11T23:18:40.819Z,7.11
2022-10-11T23:21:09.400Z,7.09
2022-10-11T23:23:39.132Z,7.06
2022-10-11T23:26:16.956Z,7.01
2022-10-11T23:28:44.862Z,6.98
2022-10-11T23:31:17.466Z,6.97
2022-10-11T23:33:46.876Z,6.95
2022-10-11T23:36:20.971Z,7.12
2022-10-11T23:38:54.557Z,7.13
2022-10-11T23:41:25.693Z,7.03
2022-10-11T23:43:53.588Z,6.98
2022-10-11T23:46:21.564Z,6.97
2022-10-11T23:48:49.236Z,6.95
2022-10-11T23:51:16.895Z,6.91
2022-10-11T23:53:44.652Z,6.90
2022-10-11T23:56:13.007Z,6.88
2022-10-11T23:58:40.731Z,6.85
